createdAt,value
2018-05-25T00:00:29.706Z,19.40
2018-05-25T00:02:06.939Z,19.30
2018-05-25T00:03:45.822Z,19.30
2018-05-25T00:05:22.503Z,19.20
2018-05-25T00:07:00.771Z,19.20
2018-05-25T00:08:41.647Z,19.10
2018-05-25T00:10:17.894Z,18.90
2018-05-25T00:11:55.215Z,18.80
2018-05-25T00:13:33.017Z,18.60
2018-05-25T00:15:09.805Z,18.60
2018-05-25T00:16:47.731Z,18.50
2018-05-25T00:18:24.445Z,18.50
2018-05-25T00:20:03.703Z,18.50
2018-05-25T00:21:42.319Z,18.50
2018-05-25T00:23:20.125Z,18.50
2018-05-25T00:24:56.487Z,18.40
2018-05-25T00:26:34.123Z,18.40
2018-05-25T00:28:10.470Z,18.30
2018-05-25T00:29:47.430Z,18.30
2018-05-25T00:31:25.866Z,18.30
2018-05-25T00:35:46.105Z,18.90
2018-05-25T00:37:24.598Z,18.80
2018-05-25T00:39:02.241Z,19.50
2018-05-25T00:40:40.914Z,19.40
2018-05-25T00:42:19.066Z,19.70
2018-05-25T00:43:55.707Z,19.70
2018-05-25T00:45:33.052Z,19.70
2018-05-25T00:47:09.985Z,19.80
2018-05-25T00:51:04.330Z,19.70
2018-05-25T00:52:41.725Z,19.40
2018-05-25T00:54:19.613Z,19.30
2018-05-25T00:55:56.637Z,19.30
2018-05-25T00:57:33.180Z,19.30
2018-05-25T00:59:09.834Z,19.30
2018-05-25T01:00:46.749Z,19.30
2018-05-25T01:02:23.858Z,19.30
2018-05-25T01:04:00.512Z,19.30
2018-05-25T01:05:36.856Z,19.10
2018-05-25T01:07:13.188Z,19.10
2018-05-25T01:08:50.883Z,18.90
2018-05-25T01:10:27.741Z,18.90
2018-05-25T01:12:04.443Z,18.80
2018-05-25T01:13:40.756Z,18.70
2018-05-25T01:15:19.723Z,18.60
2018-05-25T01:16:56.548Z,18.60
2018-05-25T01:18:32.990Z,18.50
2018-05-25T01:20:09.367Z,18.40
2018-05-25T01:21:46.889Z,18.30
2018-05-25T01:23:23.927Z,18.20
2018-05-25T01:25:00.227Z,18.20
2018-05-25T01:26:36.465Z,18.10
2018-05-25T01:28:13.242Z,18.00
2018-05-25T01:29:49.614Z,18.00
2018-05-25T01:31:27.098Z,17.90
2018-05-25T01:33:03.402Z,17.90
2018-05-25T01:34:40.035Z,17.90
2018-05-25T01:36:16.543Z,17.80
2018-05-25T01:37:52.932Z,17.80
2018-05-25T01:39:29.830Z,17.90
2018-05-25T01:41:06.578Z,17.80
2018-05-25T01:42:43.662Z,17.90
2018-05-25T01:44:20.765Z,17.80
2018-05-25T01:45:57.306Z,17.80
2018-05-25T01:47:33.985Z,17.90
2018-05-25T01:49:11.066Z,18.00
2018-05-25T01:50:48.196Z,18.00
2018-05-25T01:52:24.477Z,18.00
2018-05-25T01:54:01.203Z,18.00
2018-05-25T01:55:37.545Z,18.00
2018-05-25T01:57:14.705Z,17.90
2018-05-25T01:58:51.039Z,17.90
2018-05-25T02:00:29.646Z,17.90
2018-05-25T02:02:06.041Z,17.80
2018-05-25T02:03:43.121Z,17.80
2018-05-25T02:05:19.310Z,17.80
2018-05-25T02:06:55.973Z,17.80
2018-05-25T02:08:32.277Z,17.80
2018-05-25T02:10:08.565Z,17.80
2018-05-25T02:11:44.841Z,17.80
2018-05-25T02:13:21.565Z,17.80
2018-05-25T02:14:57.838Z,17.90
2018-05-25T02:16:34.653Z,18.00
2018-05-25T02:18:10.959Z,18.10
2018-05-25T02:19:47.213Z,18.30
2018-05-25T02:21:23.508Z,18.30
2018-05-25T02:22:59.853Z,18.40
2018-05-25T02:24:36.665Z,18.40
2018-05-25T02:26:13.730Z,18.30
2018-05-25T02:27:50.033Z,18.30
2018-05-25T02:29:28.293Z,18.20
2018-05-25T02:31:05.265Z,18.10
2018-05-25T02:32:41.821Z,18.00
2018-05-25T02:34:18.074Z,17.90
2018-05-25T02:35:54.437Z,17.90
2018-05-25T02:37:31.232Z,17.90
2018-05-25T02:39:08.067Z,18.00
2018-05-25T02:40:44.602Z,18.30
2018-05-25T02:42:20.838Z,18.70
2018-05-25T02:43:57.934Z,19.30
2018-05-25T02:45:34.437Z,19.30
2018-05-25T02:47:10.993Z,19.50
2018-05-25T02:48:47.553Z,19.70
2018-05-25T02:50:24.334Z,19.80
2018-05-25T02:52:00.576Z,20.00
2018-05-25T02:53:36.861Z,20.10
2018-05-25T02:55:13.469Z,20.30
2018-05-25T02:56:50.567Z,20.20
2018-05-25T02:58:27.757Z,20.20
2018-05-25T03:00:04.094Z,19.60
2018-05-25T03:01:41.033Z,18.80
2018-05-25T03:03:17.472Z,18.40
2018-05-25T03:04:54.543Z,17.90
2018-05-25T03:06:30.932Z,17.90
2018-05-25T03:08:07.285Z,17.80
2018-05-25T03:09:43.641Z,17.70
2018-05-25T03:11:20.834Z,17.60
2018-05-25T03:12:57.445Z,17.50
2018-05-25T03:14:33.775Z,17.50
2018-05-25T03:16:10.394Z,17.50
2018-05-25T03:17:46.786Z,17.50
2018-05-25T03:19:23.497Z,17.50
2018-05-25T03:21:00.578Z,17.50
2018-05-25T03:22:36.805Z,17.50
2018-05-25T03:24:13.329Z,17.50
2018-05-25T03:25:50.978Z,17.60
2018-05-25T03:27:28.068Z,17.60
2018-05-25T03:29:05.199Z,17.60
2018-05-25T03:30:41.646Z,17.60
2018-05-25T03:32:17.912Z,17.60
2018-05-25T03:33:54.117Z,17.70
2018-05-25T03:35:30.534Z,17.80
2018-05-25T03:37:06.892Z,17.90
2018-05-25T03:38:43.128Z,18.00
2018-05-25T03:40:20.415Z,18.00
2018-05-25T03:41:57.526Z,17.90
2018-05-25T03:43:34.188Z,17.80
2018-05-25T03:45:10.413Z,17.80
2018-05-25T03:46:46.889Z,17.70
2018-05-25T03:48:23.178Z,17.60
2018-05-25T03:49:59.848Z,17.60
2018-05-25T03:51:36.050Z,17.60
2018-05-25T03:53:12.323Z,17.50
2018-05-25T03:54:48.550Z,17.60
2018-05-25T03:56:24.787Z,17.50
2018-05-25T03:58:01.033Z,17.50
2018-05-25T04:02:00.661Z,17.50
2018-05-25T04:03:37.223Z,17.50
2018-05-25T04:05:13.449Z,17.50
2018-05-25T04:06:49.780Z,17.50
2018-05-25T04:08:26.178Z,17.40
2018-05-25T04:10:02.492Z,17.40
2018-05-25T04:11:38.822Z,17.40
2018-05-25T04:13:15.129Z,17.40
2018-05-25T04:14:52.929Z,17.30
2018-05-25T04:16:30.390Z,17.30
2018-05-25T04:18:06.745Z,17.30
2018-05-25T04:19:43.760Z,17.40
2018-05-25T04:21:20.317Z,17.40
2018-05-25T04:22:57.305Z,17.50
2018-05-25T04:24:33.807Z,17.40
2018-05-25T04:26:10.120Z,17.50
2018-05-25T04:27:47.460Z,17.60
2018-05-25T04:29:24.673Z,17.60
2018-05-25T04:31:02.133Z,17.80
2018-05-25T04:32:38.368Z,17.80
2018-05-25T04:34:15.063Z,17.90
2018-05-25T04:35:52.079Z,18.00
2018-05-25T04:37:29.945Z,18.20
2018-05-25T04:39:07.133Z,18.20
2018-05-25T04:40:43.528Z,18.20
2018-05-25T04:42:20.919Z,18.40
2018-05-25T04:43:57.830Z,18.50
2018-05-25T04:45:34.475Z,18.60
2018-05-25T04:47:10.800Z,18.70
2018-05-25T04:48:47.771Z,18.80
2018-05-25T04:50:23.937Z,18.80
2018-05-25T04:52:01.593Z,18.90
2018-05-25T04:53:38.281Z,19.00
2018-05-25T04:55:14.610Z,19.20
2018-05-25T04:56:51.125Z,19.40
2018-05-25T04:58:28.489Z,19.90
2018-05-25T05:00:05.849Z,19.90
2018-05-25T05:01:42.657Z,19.90
2018-05-25T05:03:19.025Z,19.80
2018-05-25T05:04:55.295Z,19.90
2018-05-25T05:06:32.181Z,19.70
2018-05-25T05:08:08.411Z,19.60
2018-05-25T05:09:45.447Z,19.70
2018-05-25T05:11:22.194Z,19.70
2018-05-25T05:12:58.434Z,19.80
2018-05-25T05:14:34.901Z,20.00
2018-05-25T05:16:11.323Z,19.90
2018-05-25T05:17:47.922Z,19.90
2018-05-25T05:19:24.948Z,19.80
2018-05-25T05:21:01.307Z,19.80
2018-05-25T05:22:37.549Z,20.00
2018-05-25T05:24:15.216Z,20.10
2018-05-25T05:25:52.264Z,19.90
2018-05-25T05:27:28.530Z,19.90
2018-05-25T05:29:04.752Z,19.80
2018-05-25T05:30:41.459Z,20.10
2018-05-25T05:32:17.814Z,20.10
2018-05-25T05:33:54.833Z,20.20
2018-05-25T05:35:31.145Z,20.30
2018-05-25T05:37:07.398Z,20.50
2018-05-25T05:38:43.665Z,20.70
2018-05-25T05:40:20.004Z,20.70
2018-05-25T05:41:56.319Z,20.80
2018-05-25T05:43:33.605Z,20.60
2018-05-25T05:45:09.936Z,20.60
2018-05-25T05:46:46.571Z,20.70
2018-05-25T05:48:22.836Z,21.00
2018-05-25T05:49:59.654Z,21.10
2018-05-25T05:51:35.957Z,21.20
2018-05-25T05:53:12.141Z,21.00
2018-05-25T05:54:48.658Z,21.30
2018-05-25T05:56:25.524Z,21.20
2018-05-25T05:58:02.439Z,21.00
2018-05-25T05:59:38.721Z,21.00
2018-05-25T06:01:16.336Z,21.00
2018-05-25T06:02:53.449Z,21.10
2018-05-25T06:04:29.823Z,21.10
2018-05-25T06:06:06.137Z,21.30
2018-05-25T06:07:42.436Z,21.40
2018-05-25T06:09:19.129Z,22.20
2018-05-25T06:10:56.303Z,22.70
2018-05-25T06:12:33.347Z,22.10
2018-05-25T06:14:09.594Z,22.10
2018-05-25T06:15:47.577Z,21.80
2018-05-25T06:17:23.911Z,21.60
2018-05-25T06:19:00.175Z,21.90
2018-05-25T06:20:36.511Z,22.70
2018-05-25T06:22:13.782Z,23.50
2018-05-25T06:25:27.995Z,24.20
2018-05-25T06:27:04.350Z,24.40
2018-05-25T06:28:41.367Z,24.50
2018-05-25T06:30:17.996Z,24.60
2018-05-25T06:31:54.334Z,24.80
2018-05-25T06:33:30.721Z,24.90
2018-05-25T06:35:07.426Z,25.00
2018-05-25T06:36:44.698Z,25.00
2018-05-25T06:38:22.174Z,25.10
2018-05-25T06:39:58.532Z,25.10
2018-05-25T06:41:36.147Z,25.20
2018-05-25T06:43:12.503Z,25.20
2018-05-25T06:44:49.038Z,25.10
2018-05-25T06:46:25.764Z,25.20
2018-05-25T06:48:03.857Z,23.80
2018-05-25T06:49:40.165Z,23.80
2018-05-25T06:51:16.768Z,23.80
2018-05-25T06:52:53.255Z,24.30
2018-05-25T06:54:31.607Z,25.00
2018-05-25T06:56:07.909Z,25.00
2018-05-25T06:59:17.249Z,25.50
2018-05-25T07:00:54.655Z,26.10
2018-05-25T07:02:31.663Z,26.00
2018-05-25T07:04:07.868Z,26.00
2018-05-25T07:05:44.894Z,26.30
2018-05-25T07:07:21.655Z,26.30
2018-05-25T07:08:58.361Z,26.20
2018-05-25T07:10:36.135Z,25.90
2018-05-25T07:12:12.357Z,25.40
2018-05-25T07:13:48.955Z,25.10
2018-05-25T07:15:28.587Z,24.80
2018-05-25T07:17:04.874Z,24.60
2018-05-25T07:18:41.196Z,24.60
2018-05-25T07:20:17.729Z,25.00
2018-05-25T07:21:54.070Z,25.60
2018-05-25T07:23:31.257Z,25.90
2018-05-25T07:25:07.622Z,25.10
2018-05-25T07:26:44.248Z,24.90
2018-05-25T07:28:20.569Z,24.60
2018-05-25T07:29:57.561Z,23.50
2018-05-25T07:31:34.102Z,23.40
2018-05-25T07:34:43.228Z,23.20
2018-05-25T07:36:19.478Z,23.50
2018-05-25T07:37:55.853Z,24.00
2018-05-25T07:39:33.626Z,24.10
2018-05-25T07:41:09.932Z,24.50
2018-05-25T07:42:46.321Z,24.40
2018-05-25T07:44:22.658Z,24.60
2018-05-25T07:45:59.682Z,25.00
2018-05-25T07:47:35.973Z,25.90
2018-05-25T07:49:13.183Z,24.60
2018-05-25T07:50:49.473Z,24.50
2018-05-25T07:52:27.694Z,23.50
2018-05-25T07:54:04.107Z,23.30
2018-05-25T07:55:40.431Z,22.80
2018-05-25T07:57:16.745Z,22.70
2018-05-25T08:00:27.438Z,23.10
2018-05-25T08:02:04.718Z,23.00
2018-05-25T08:03:41.731Z,22.70
2018-05-25T08:05:18.621Z,22.70
2018-05-25T08:06:54.862Z,22.90
2018-05-25T08:08:31.285Z,22.90
2018-05-25T08:10:08.285Z,24.00
2018-05-25T08:11:44.938Z,24.00
2018-05-25T08:13:21.921Z,23.70
2018-05-25T08:14:58.934Z,23.50
2018-05-25T08:16:35.709Z,23.40
2018-05-25T08:18:12.435Z,23.00
2018-05-25T08:19:49.461Z,23.50
2018-05-25T08:21:26.313Z,23.40
2018-05-25T08:23:02.592Z,23.00
2018-05-25T08:24:38.901Z,23.00
2018-05-25T08:26:16.050Z,23.00
2018-05-25T08:27:52.293Z,23.00
2018-05-25T08:29:28.618Z,22.80
2018-05-25T08:31:05.513Z,23.00
2018-05-25T08:32:41.785Z,23.20
2018-05-25T08:34:18.063Z,23.40
2018-05-25T08:35:54.337Z,23.30
2018-05-25T08:37:31.721Z,23.20
2018-05-25T08:39:08.734Z,23.00
2018-05-25T08:40:45.023Z,23.00
2018-05-25T08:42:21.299Z,23.10
2018-05-25T08:43:59.495Z,23.40
2018-05-25T08:45:36.345Z,23.40
2018-05-25T08:47:12.549Z,23.40
2018-05-25T08:48:49.598Z,23.40
2018-05-25T08:50:26.185Z,23.40
2018-05-25T08:52:02.446Z,23.30
2018-05-25T08:53:38.681Z,23.80
2018-05-25T08:55:16.155Z,23.50
2018-05-25T08:56:52.869Z,23.50
2018-05-25T08:58:29.881Z,23.70
2018-05-25T09:00:06.390Z,23.70
2018-05-25T09:01:43.697Z,23.00
2018-05-25T09:03:20.386Z,23.00
2018-05-25T09:04:57.406Z,23.10
2018-05-25T09:06:33.736Z,23.10
2018-05-25T09:08:10.097Z,23.30
2018-05-25T09:09:46.361Z,23.60
2018-05-25T09:11:22.752Z,23.70
2018-05-25T09:12:59.168Z,23.70
2018-05-25T09:14:37.050Z,24.20
2018-05-25T09:16:14.917Z,24.70
2018-05-25T09:17:51.317Z,24.70
2018-05-25T09:19:28.389Z,24.60
2018-05-25T09:21:05.416Z,24.80
2018-05-25T09:22:42.508Z,24.70
2018-05-25T09:24:18.845Z,25.00
2018-05-25T09:25:55.348Z,25.70
2018-05-25T09:27:31.835Z,26.40
2018-05-25T09:29:09.381Z,25.30
2018-05-25T09:30:45.934Z,25.20
2018-05-25T09:32:22.563Z,24.70
2018-05-25T09:33:59.734Z,24.90
2018-05-25T09:35:37.933Z,24.90
2018-05-25T09:37:15.837Z,24.30
2018-05-25T09:38:52.996Z,24.00
2018-05-25T09:40:29.554Z,24.00
2018-05-25T09:42:06.791Z,24.00
2018-05-25T09:43:44.029Z,24.60
2018-05-25T09:45:20.651Z,25.50
2018-05-25T09:46:58.611Z,25.50
2018-05-25T09:48:38.355Z,25.30
2018-05-25T09:50:14.706Z,25.30
2018-05-25T09:51:53.174Z,25.10
2018-05-25T09:53:29.528Z,25.60
2018-05-25T09:55:06.164Z,25.60
2018-05-25T09:56:51.349Z,25.50
2018-05-25T09:58:27.774Z,25.00
2018-05-25T10:00:04.186Z,25.00
2018-05-25T10:01:40.846Z,24.80
2018-05-25T10:03:18.154Z,24.00
2018-05-25T10:04:54.787Z,24.00
2018-05-25T10:06:32.026Z,23.90
2018-05-25T10:08:08.620Z,23.90
2018-05-25T10:09:44.965Z,24.30
2018-05-25T10:11:21.299Z,24.70
2018-05-25T10:12:57.671Z,24.80
2018-05-25T10:14:34.414Z,25.00
2018-05-25T10:16:11.021Z,24.80
2018-05-25T10:17:47.390Z,24.70
2018-05-25T10:19:23.860Z,24.50
2018-05-25T10:21:01.426Z,24.20
2018-05-25T10:22:37.859Z,24.20
2018-05-25T10:24:14.214Z,24.20
2018-05-25T10:25:51.273Z,24.70
2018-05-25T10:27:28.889Z,24.80
2018-05-25T10:29:05.252Z,24.80
2018-05-25T10:30:41.874Z,24.90
2018-05-25T10:32:18.130Z,24.70
2018-05-25T10:33:54.770Z,25.10
2018-05-25T10:35:31.199Z,25.10
2018-05-25T10:37:07.574Z,24.80
2018-05-25T10:38:45.143Z,24.90
2018-05-25T10:40:22.592Z,24.80
2018-05-25T10:41:58.903Z,24.80
2018-05-25T10:43:36.118Z,25.00
2018-05-25T10:45:15.224Z,25.30
2018-05-25T10:46:52.392Z,26.10
2018-05-25T10:48:28.742Z,26.30
2018-05-25T10:50:05.888Z,25.80
2018-05-25T10:51:42.194Z,25.80
2018-05-25T10:53:19.747Z,25.10
2018-05-25T10:54:56.040Z,25.00
2018-05-25T10:56:33.113Z,24.70
2018-05-25T10:58:09.351Z,24.70
2018-05-25T10:59:47.786Z,24.80
2018-05-25T11:01:24.494Z,24.80
2018-05-25T11:03:00.809Z,24.70
2018-05-25T11:04:37.085Z,24.90
2018-05-25T11:06:13.390Z,25.20
2018-05-25T11:07:50.726Z,25.80
2018-05-25T11:09:26.991Z,26.00
2018-05-25T11:11:03.346Z,26.00
2018-05-25T11:12:39.937Z,25.70
2018-05-25T11:14:16.262Z,25.60
2018-05-25T11:15:53.648Z,25.40
2018-05-25T11:17:30.266Z,25.30
2018-05-25T11:19:06.955Z,25.80
2018-05-25T11:20:43.353Z,26.00
2018-05-25T11:22:19.668Z,26.10
2018-05-25T11:23:56.249Z,26.40
2018-05-25T11:25:32.899Z,26.40
2018-05-25T11:27:09.186Z,26.50
2018-05-25T11:28:46.924Z,25.90
2018-05-25T11:30:25.017Z,25.90
2018-05-25T11:32:01.761Z,25.90
2018-05-25T11:33:38.282Z,25.50
2018-05-25T11:35:14.597Z,25.40
2018-05-25T11:36:51.936Z,25.20
2018-05-25T11:38:28.775Z,25.10
2018-05-25T11:40:05.297Z,24.90
2018-05-25T11:41:41.652Z,25.10
2018-05-25T11:43:17.945Z,25.60
2018-05-25T11:44:55.299Z,25.70
2018-05-25T11:46:37.437Z,25.60
2018-05-25T11:48:14.449Z,26.10
2018-05-25T11:49:51.269Z,26.10
2018-05-25T11:51:28.346Z,25.70
2018-05-25T11:53:05.474Z,25.80
2018-05-25T11:54:42.326Z,25.70
2018-05-25T11:56:19.346Z,26.40
2018-05-25T11:57:56.914Z,26.40
2018-05-25T11:59:33.175Z,27.00
2018-05-25T12:01:10.130Z,26.80
2018-05-25T12:02:47.246Z,25.40
2018-05-25T12:04:23.769Z,25.40
2018-05-25T12:06:00.914Z,25.10
2018-05-25T12:07:37.319Z,25.00
2018-05-25T12:09:14.387Z,25.30
2018-05-25T12:10:52.151Z,25.30
2018-05-25T12:12:28.455Z,25.30
2018-05-25T12:14:05.861Z,25.50
2018-05-25T12:15:42.542Z,25.40
2018-05-25T12:17:19.237Z,25.70
2018-05-25T12:18:55.705Z,26.40
2018-05-25T12:20:32.831Z,26.40
2018-05-25T12:22:09.562Z,26.30
2018-05-25T12:23:46.522Z,26.30
2018-05-25T12:25:22.970Z,26.20
2018-05-25T12:27:01.361Z,26.20
2018-05-25T12:28:38.149Z,26.50
2018-05-25T12:30:17.605Z,26.50
2018-05-25T12:31:54.379Z,26.20
2018-05-25T12:33:31.866Z,26.00
2018-05-25T12:35:08.158Z,25.90
2018-05-25T12:36:44.517Z,25.90
2018-05-25T12:38:20.911Z,25.90
2018-05-25T12:39:58.081Z,26.00
2018-05-25T12:41:34.387Z,26.40
2018-05-25T12:43:12.072Z,26.30
2018-05-25T12:45:02.466Z,26.00
2018-05-25T12:46:38.992Z,26.10
2018-05-25T12:48:15.618Z,26.50
2018-05-25T12:49:52.526Z,27.20
2018-05-25T12:51:28.830Z,27.70
2018-05-25T12:53:05.229Z,28.00
2018-05-25T12:54:42.737Z,28.20
2018-05-25T12:56:20.710Z,28.10
2018-05-25T12:57:57.237Z,28.30
2018-05-25T12:59:35.693Z,28.30
2018-05-25T13:01:12.882Z,28.50
2018-05-25T13:02:52.006Z,27.60
2018-05-25T13:04:30.033Z,28.00
2018-05-25T13:06:06.375Z,28.00
2018-05-25T13:07:43.485Z,28.20
2018-05-25T13:09:20.204Z,28.20
2018-05-25T13:10:56.993Z,28.20
2018-05-25T13:12:33.290Z,27.10
2018-05-25T13:14:10.812Z,26.40
2018-05-25T13:15:47.807Z,26.20
2018-05-25T13:17:24.939Z,26.60
2018-05-25T13:19:02.564Z,26.60
2018-05-25T13:20:39.605Z,26.80
2018-05-25T13:22:16.045Z,26.80
2018-05-25T13:23:52.462Z,27.30
2018-05-25T13:25:29.555Z,27.60
2018-05-25T13:27:06.545Z,27.60
2018-05-25T13:28:43.639Z,26.80
2018-05-25T13:30:20.757Z,26.80
2018-05-25T13:31:57.636Z,26.60
2018-05-25T13:33:34.339Z,26.30
2018-05-25T13:35:12.256Z,25.80
2018-05-25T13:36:49.348Z,25.60
2018-05-25T13:38:25.608Z,25.60
2018-05-25T13:40:02.364Z,25.80
2018-05-25T13:41:38.817Z,26.30
2018-05-25T13:43:15.849Z,27.00
2018-05-25T13:44:52.421Z,27.00
2018-05-25T13:46:29.314Z,26.90
2018-05-25T13:48:06.577Z,26.20
2018-05-25T13:49:43.805Z,26.00
2018-05-25T13:51:20.108Z,25.80
2018-05-25T13:52:56.993Z,25.80
2018-05-25T13:54:33.323Z,25.80
2018-05-25T13:56:09.557Z,25.80
2018-05-25T13:57:45.842Z,25.70
2018-05-25T13:59:29.120Z,25.60
2018-05-25T14:01:05.745Z,25.60
2018-05-25T14:02:41.969Z,25.70
2018-05-25T14:04:19.255Z,25.70
2018-05-25T14:20:29.782Z,25.80
2018-05-25T14:22:07.460Z,26.00
2018-05-25T14:23:43.897Z,26.20
2018-05-25T14:25:20.439Z,26.50
2018-05-25T14:26:57.542Z,26.00
2018-05-25T14:28:33.762Z,26.00
2018-05-25T14:30:10.902Z,25.60
2018-05-25T14:31:48.005Z,25.70
2018-05-25T14:33:24.361Z,25.80
2018-05-25T14:35:00.696Z,26.40
2018-05-25T14:36:37.087Z,26.60
2018-05-25T14:38:13.696Z,25.90
2018-05-25T14:39:50.802Z,26.10
2018-05-25T14:41:27.959Z,26.10
2018-05-25T14:43:04.997Z,26.30
2018-05-25T14:44:41.698Z,26.20
2018-05-25T14:46:18.134Z,26.20
2018-05-25T14:47:55.280Z,26.20
2018-05-25T14:49:31.577Z,26.20
2018-05-25T14:51:09.806Z,26.30
2018-05-25T14:52:46.041Z,26.30
2018-05-25T14:54:23.725Z,26.50
2018-05-25T14:56:00.011Z,26.50
2018-05-25T14:57:36.861Z,26.10
2018-05-25T14:59:13.207Z,25.90
2018-05-25T15:00:50.805Z,26.00
2018-05-25T15:02:27.932Z,25.90
2018-05-25T15:04:04.566Z,26.00
2018-05-25T15:05:40.815Z,25.90
2018-05-25T15:07:17.994Z,26.00
2018-05-25T15:08:54.243Z,26.10
2018-05-25T15:10:30.988Z,26.00
2018-05-25T15:12:07.214Z,25.80
2018-05-25T15:13:43.512Z,25.90
2018-05-25T15:15:20.241Z,26.30
2018-05-25T15:16:57.127Z,26.00
2018-05-25T15:18:34.183Z,25.80
2018-05-25T15:20:10.572Z,25.80
2018-05-25T15:21:47.563Z,25.80
2018-05-25T15:23:25.230Z,25.80
2018-05-25T15:25:02.381Z,25.90
2018-05-25T15:26:38.709Z,25.90
2018-05-25T15:28:15.641Z,26.10
2018-05-25T15:29:53.015Z,26.60
2018-05-25T15:31:29.587Z,26.60
2018-05-25T15:33:06.771Z,27.40
2018-05-25T15:34:44.774Z,26.90
2018-05-25T15:36:23.170Z,26.90
2018-05-25T15:38:01.667Z,26.90
2018-05-25T15:39:38.078Z,26.90
2018-05-25T15:42:57.739Z,26.80
2018-05-25T15:44:34.022Z,26.70
2018-05-25T15:46:11.540Z,26.80
2018-05-25T15:47:47.903Z,26.70
2018-05-25T15:49:24.305Z,26.50
2018-05-25T15:51:00.646Z,26.70
2018-05-25T15:52:36.992Z,27.20
2018-05-25T15:54:16.244Z,26.80
2018-05-25T15:55:54.445Z,27.10
2018-05-25T15:57:30.817Z,27.20
2018-05-25T15:59:07.673Z,27.20
2018-05-25T16:00:44.446Z,27.10
2018-05-25T16:02:22.722Z,27.00
2018-05-25T16:03:59.054Z,27.00
2018-05-25T16:05:36.169Z,27.20
2018-05-25T16:07:12.647Z,27.20
2018-05-25T16:08:50.056Z,26.60
2018-05-25T16:12:05.743Z,26.80
2018-05-25T16:13:42.207Z,27.20
2018-05-25T16:15:20.966Z,27.40
2018-05-25T16:16:58.401Z,27.70
2018-05-25T16:18:34.810Z,27.60
2018-05-25T16:20:11.376Z,27.60
2018-05-25T16:21:48.939Z,27.20
2018-05-25T16:23:26.146Z,27.30
2018-05-25T16:25:03.246Z,27.20
2018-05-25T16:26:39.541Z,27.20
2018-05-25T16:28:16.196Z,27.30
2018-05-25T16:29:52.495Z,27.40
2018-05-25T16:31:29.919Z,27.50
2018-05-25T16:33:07.152Z,27.60
2018-05-25T16:34:43.941Z,27.50
2018-05-25T16:36:20.483Z,27.50
2018-05-25T16:37:56.745Z,27.40
2018-05-25T16:39:32.932Z,27.20
2018-05-25T16:41:09.429Z,27.00
2018-05-25T16:42:46.493Z,26.90
2018-05-25T16:44:23.354Z,26.90
2018-05-25T16:45:59.924Z,27.00
2018-05-25T16:47:37.587Z,27.00
2018-05-25T16:49:13.832Z,27.00
2018-05-25T16:50:50.130Z,27.00
2018-05-25T16:52:26.513Z,27.10
2018-05-25T16:54:03.187Z,27.10
2018-05-25T16:55:40.231Z,27.50
2018-05-25T16:57:16.685Z,27.40
2018-05-25T16:58:53.225Z,26.90
2018-05-25T17:00:31.310Z,27.20
2018-05-25T17:02:07.750Z,27.10
2018-05-25T17:03:44.115Z,27.00
2018-05-25T17:05:21.906Z,27.20
2018-05-25T17:06:58.665Z,27.20
2018-05-25T17:08:34.988Z,27.30
2018-05-25T17:10:11.410Z,27.00
2018-05-25T17:11:47.822Z,27.20
2018-05-25T17:13:24.446Z,27.40
2018-05-25T17:15:00.794Z,27.40
2018-05-25T17:16:37.325Z,27.30
2018-05-25T17:18:14.118Z,27.20
2018-05-25T17:19:50.812Z,27.20
2018-05-25T17:21:27.281Z,27.30
2018-05-25T17:23:03.587Z,27.30
2018-05-25T17:24:40.723Z,27.20
2018-05-25T17:26:17.148Z,27.20
2018-05-25T17:27:53.511Z,27.10
2018-05-25T17:29:30.554Z,27.30
2018-05-25T17:31:07.439Z,27.20
2018-05-25T17:32:44.078Z,27.10
2018-05-25T17:34:20.494Z,27.10
2018-05-25T17:35:57.100Z,27.00
2018-05-25T17:37:33.421Z,26.60
2018-05-25T17:39:10.230Z,26.90
2018-05-25T17:40:46.687Z,26.70
2018-05-25T17:42:23.875Z,26.60
2018-05-25T17:44:00.122Z,26.70
2018-05-25T17:45:37.709Z,27.00
2018-05-25T17:47:16.758Z,27.00
2018-05-25T17:48:55.105Z,27.10
2018-05-25T17:50:32.639Z,27.00
2018-05-25T17:52:09.798Z,27.00
2018-05-25T17:53:46.890Z,26.90
2018-05-25T17:55:23.948Z,26.80
2018-05-25T17:57:00.384Z,26.80
2018-05-25T17:58:37.235Z,26.70
2018-05-25T18:00:13.566Z,26.70
2018-05-25T18:01:51.463Z,26.60
2018-05-25T18:03:27.737Z,26.60
2018-05-25T18:05:04.480Z,26.60
2018-05-25T18:06:40.776Z,26.50
2018-05-25T18:08:17.030Z,26.20
2018-05-25T18:09:53.341Z,26.40
2018-05-25T18:11:32.120Z,26.40
2018-05-25T18:13:08.638Z,26.40
2018-05-25T18:14:44.956Z,26.60
2018-05-25T18:16:22.646Z,26.70
2018-05-25T18:17:58.969Z,26.70
2018-05-25T18:19:36.055Z,27.00
2018-05-25T18:21:13.155Z,26.90
2018-05-25T18:22:49.848Z,26.90
2018-05-25T18:24:26.777Z,26.80
2018-05-25T18:26:03.901Z,26.40
2018-05-25T18:27:40.235Z,26.40
2018-05-25T18:29:16.917Z,25.70
2018-05-25T18:30:53.792Z,25.70
2018-05-25T18:32:30.107Z,26.00
2018-05-25T18:34:06.493Z,26.20
2018-05-25T18:35:43.172Z,26.30
2018-05-25T18:37:19.478Z,26.20
2018-05-25T18:38:55.802Z,26.10
2018-05-25T18:40:32.731Z,26.20
2018-05-25T18:42:09.944Z,25.90
2018-05-25T18:43:46.296Z,25.80
2018-05-25T18:45:25.159Z,26.00
2018-05-25T18:47:01.444Z,25.80
2018-05-25T18:48:38.073Z,26.00
2018-05-25T18:50:14.433Z,26.20
2018-05-25T18:51:50.751Z,25.90
2018-05-25T18:53:27.752Z,25.80
2018-05-25T18:55:04.769Z,25.80
2018-05-25T18:56:41.124Z,26.10
2018-05-25T18:58:17.426Z,26.20
2018-05-25T18:59:53.794Z,26.00
2018-05-25T19:01:30.706Z,26.00
2018-05-25T19:03:07.141Z,25.70
2018-05-25T19:04:43.405Z,25.10
2018-05-25T19:06:19.681Z,25.30
2018-05-25T19:07:56.568Z,25.20
2018-05-25T19:09:33.536Z,24.80
2018-05-25T19:11:09.905Z,24.80
2018-05-25T19:12:46.307Z,24.70
2018-05-25T19:14:23.700Z,24.70
2018-05-25T19:16:00.128Z,24.80
2018-05-25T19:17:36.592Z,24.70
2018-05-25T19:19:12.943Z,24.60
2018-05-25T19:20:49.641Z,24.60
2018-05-25T19:22:27.538Z,25.10
2018-05-25T19:24:03.878Z,25.10
2018-05-25T19:25:40.203Z,24.50
2018-05-25T19:27:16.972Z,24.50
2018-05-25T19:28:53.305Z,24.50
2018-05-25T19:30:31.502Z,24.80
2018-05-25T19:32:08.753Z,24.60
2018-05-25T19:33:45.480Z,24.60
2018-05-25T19:35:21.746Z,24.40
2018-05-25T19:36:58.298Z,24.40
2018-05-25T19:38:35.506Z,24.80
2018-05-25T19:40:12.273Z,24.70
2018-05-25T19:41:48.591Z,24.80
2018-05-25T19:43:24.895Z,24.60
2018-05-25T19:45:01.312Z,24.30
2018-05-25T19:46:39.395Z,24.20
2018-05-25T19:48:15.714Z,24.20
2018-05-25T19:49:52.027Z,24.20
2018-05-25T19:51:29.439Z,24.10
2018-05-25T19:53:06.190Z,24.10
2018-05-25T19:54:42.502Z,24.00
2018-05-25T19:56:18.870Z,24.00
2018-05-25T19:57:55.179Z,23.90
2018-05-25T19:59:31.810Z,24.20
2018-05-25T20:01:08.555Z,24.20
2018-05-25T20:02:44.896Z,24.10
2018-05-25T20:04:21.706Z,24.20
2018-05-25T20:05:58.439Z,24.20
2018-05-25T20:07:35.460Z,24.20
2018-05-25T20:09:12.216Z,23.90
2018-05-25T20:10:48.599Z,24.00
2018-05-25T20:12:25.505Z,23.80
2018-05-25T20:14:01.930Z,23.70
2018-05-25T20:15:38.347Z,23.60
2018-05-25T20:17:14.657Z,23.50
2018-05-25T20:18:51.382Z,23.50
2018-05-25T20:20:28.224Z,23.60
2018-05-25T20:22:04.497Z,23.70
2018-05-25T20:23:40.917Z,23.70
2018-05-25T20:25:17.700Z,23.50
2018-05-25T20:26:53.946Z,23.40
2018-05-25T20:28:30.397Z,23.40
2018-05-25T20:30:07.954Z,23.60
2018-05-25T20:31:45.061Z,23.60
2018-05-25T20:33:22.141Z,23.50
2018-05-25T20:34:59.287Z,23.80
2018-05-25T20:36:36.091Z,23.80
2018-05-25T20:38:13.323Z,23.50
2018-05-25T20:39:50.109Z,23.40
2018-05-25T20:41:26.504Z,23.50
2018-05-25T20:43:02.865Z,23.30
2018-05-25T20:44:40.314Z,23.20
2018-05-25T20:46:16.880Z,23.20
2018-05-25T20:47:53.175Z,23.10
2018-05-25T20:49:30.853Z,23.00
2018-05-25T20:51:07.706Z,23.00
2018-05-25T20:52:43.976Z,23.00
2018-05-25T20:54:20.753Z,22.90
2018-05-25T20:55:57.130Z,22.90
2018-05-25T20:57:34.100Z,22.90
2018-05-25T20:59:10.799Z,23.00
2018-05-25T21:00:48.223Z,23.00
2018-05-25T21:02:24.541Z,22.90
2018-05-25T21:04:01.251Z,22.90
2018-05-25T21:05:38.460Z,22.90
2018-05-25T21:07:14.909Z,22.90
2018-05-25T21:08:51.373Z,22.90
2018-05-25T21:10:28.664Z,22.90
2018-05-25T21:12:05.131Z,22.70
2018-05-25T21:13:41.449Z,22.70
2018-05-25T21:15:20.363Z,22.70
2018-05-25T21:16:58.276Z,22.80
2018-05-25T21:18:35.387Z,22.80